sensor_id;sensor_type;location;lat;lon;timestamp;P1;durP1;ratioP1;P2;durP2;ratioP2
37609;SDS011;23457;51.966;8.230;2022-11-12T00:02:41;12.50;;;7.95;;
37609;SDS011;23457;51.966;8.230;2022-11-12T00:05:26;12.75;;;7.65;;
37609;SDS011;23457;51.966;8.230;2022-11-12T00:08:12;12.35;;;8.05;;
37609;SDS011;23457;51.966;8.230;2022-11-12T00:10:57;14.10;;;8.02;;
37609;SDS011;23457;51.966;8.230;2022-11-12T00:13:42;15.05;;;7.40;;
37609;SDS011;23457;51.966;8.230;2022-11-12T00:16:28;14.50;;;7.40;;
37609;SDS011;23457;51.966;8.230;2022-11-12T00:19:13;12.65;;;7.25;;
37609;SDS011;23457;51.966;8.230;2022-11-12T00:21:58;12.80;;;7.57;;
37609;SDS011;23457;51.966;8.230;2022-11-12T00:24:44;15.50;;;7.35;;
37609;SDS011;23457;51.966;8.230;2022-11-12T00:27:32;11.68;;;6.90;;
37609;SDS011;23457;51.966;8.230;2022-11-12T00:30:18;18.23;;;7.80;;
37609;SDS011;23457;51.966;8.230;2022-11-12T00:33:03;13.55;;;7.63;;
37609;SDS011;23457;51.966;8.230;2022-11-12T00:35:49;13.45;;;7.40;;
37609;SDS011;23457;51.966;8.230;2022-11-12T00:38:34;12.70;;;7.35;;
37609;SDS011;23457;51.966;8.230;2022-11-12T00:41:19;14.55;;;8.77;;
37609;SDS011;23457;51.966;8.230;2022-11-12T00:44:05;16.02;;;8.60;;
37609;SDS011;23457;51.966;8.230;2022-11-12T00:46:50;15.73;;;9.80;;
37609;SDS011;23457;51.966;8.230;2022-11-12T00:49:35;16.00;;;8.85;;
37609;SDS011;23457;51.966;8.230;2022-11-12T00:52:20;16.05;;;8.35;;
37609;SDS011;23457;51.966;8.230;2022-11-12T00:55:06;18.52;;;8.50;;
37609;SDS011;23457;51.966;8.230;2022-11-12T00:57:51;13.30;;;8.05;;
37609;SDS011;23457;51.966;8.230;2022-11-12T01:00:36;15.93;;;8.35;;
37609;SDS011;23457;51.966;8.230;2022-11-12T01:03:22;15.85;;;7.93;;
37609;SDS011;23457;51.966;8.230;2022-11-12T01:06:11;14.70;;;8.02;;
37609;SDS011;23457;51.966;8.230;2022-11-12T01:08:59;15.40;;;7.97;;
37609;SDS011;23457;51.966;8.230;2022-11-12T01:11:44;18.80;;;8.30;;
37609;SDS011;23457;51.966;8.230;2022-11-12T01:14:29;14.75;;;8.23;;
37609;SDS011;23457;51.966;8.230;2022-11-12T01:17:14;15.38;;;7.97;;
37609;SDS011;23457;51.966;8.230;2022-11-12T01:20:00;15.18;;;7.82;;
37609;SDS011;23457;51.966;8.230;2022-11-12T01:22:45;11.18;;;7.03;;
37609;SDS011;23457;51.966;8.230;2022-11-12T01:25:31;18.35;;;8.65;;
37609;SDS011;23457;51.966;8.230;2022-11-12T01:28:16;13.40;;;7.32;;
37609;SDS011;23457;51.966;8.230;2022-11-12T01:34:05;14.18;;;7.88;;
37609;SDS011;23457;51.966;8.230;2022-11-12T01:36:52;15.32;;;8.65;;
37609;SDS011;23457;51.966;8.230;2022-11-12T01:39:38;18.30;;;8.38;;
37609;SDS011;23457;51.966;8.230;2022-11-12T01:42:25;14.77;;;8.60;;
37609;SDS011;23457;51.966;8.230;2022-11-12T01:45:13;15.35;;;8.65;;
37609;SDS011;23457;51.966;8.230;2022-11-12T01:47:59;16.13;;;8.25;;
37609;SDS011;23457;51.966;8.230;2022-11-12T01:50:45;13.68;;;8.00;;
37609;SDS011;23457;51.966;8.230;2022-11-12T01:53:31;16.30;;;9.32;;
37609;SDS011;23457;51.966;8.230;2022-11-12T01:56:21;16.58;;;8.30;;
37609;SDS011;23457;51.966;8.230;2022-11-12T01:59:10;17.23;;;8.77;;
37609;SDS011;23457;51.966;8.230;2022-11-12T02:01:59;15.43;;;8.32;;
37609;SDS011;23457;51.966;8.230;2022-11-12T02:04:44;17.67;;;7.50;;
37609;SDS011;23457;51.966;8.230;2022-11-12T02:07:30;16.67;;;7.82;;
37609;SDS011;23457;51.966;8.230;2022-11-12T02:10:17;15.82;;;7.70;;
37609;SDS011;23457;51.966;8.230;2022-11-12T02:13:03;14.10;;;7.55;;
37609;SDS011;23457;51.966;8.230;2022-11-12T02:16:08;13.55;;;7.55;;
37609;SDS011;23457;51.966;8.230;2022-11-12T02:18:54;15.65;;;8.10;;
37609;SDS011;23457;51.966;8.230;2022-11-12T02:21:40;19.33;;;8.07;;
37609;SDS011;23457;51.966;8.230;2022-11-12T02:27:10;15.60;;;7.43;;
37609;SDS011;23457;51.966;8.230;2022-11-12T02:29:56;16.60;;;8.27;;
37609;SDS011;23457;51.966;8.230;2022-11-12T02:32:41;18.48;;;8.93;;
37609;SDS011;23457;51.966;8.230;2022-11-12T02:35:27;14.60;;;8.10;;
37609;SDS011;23457;51.966;8.230;2022-11-12T02:38:12;18.05;;;9.63;;
37609;SDS011;23457;51.966;8.230;2022-11-12T02:40:57;18.88;;;8.57;;
37609;SDS011;23457;51.966;8.230;2022-11-12T02:43:43;18.25;;;10.02;;
37609;SDS011;23457;51.966;8.230;2022-11-12T02:46:28;17.50;;;9.38;;
37609;SDS011;23457;51.966;8.230;2022-11-12T02:49:13;17.67;;;10.63;;
37609;SDS011;23457;51.966;8.230;2022-11-12T02:51:59;18.48;;;10.65;;
37609;SDS011;23457;51.966;8.230;2022-11-12T02:54:44;16.15;;;9.73;;
37609;SDS011;23457;51.966;8.230;2022-11-12T02:57:29;20.30;;;9.55;;
37609;SDS011;23457;51.966;8.230;2022-11-12T03:00:15;14.73;;;8.90;;
37609;SDS011;23457;51.966;8.230;2022-11-12T03:03:01;16.90;;;8.73;;
37609;SDS011;23457;51.966;8.230;2022-11-12T03:05:54;13.63;;;8.75;;
37609;SDS011;23457;51.966;8.230;2022-11-12T03:08:40;14.93;;;8.50;;
37609;SDS011;23457;51.966;8.230;2022-11-12T03:11:25;16.90;;;8.00;;
37609;SDS011;23457;51.966;8.230;2022-11-12T03:14:11;18.08;;;8.30;;
37609;SDS011;23457;51.966;8.230;2022-11-12T03:16:56;18.55;;;8.77;;
37609;SDS011;23457;51.966;8.230;2022-11-12T03:19:42;14.50;;;7.90;;
37609;SDS011;23457;51.966;8.230;2022-11-12T03:22:27;12.25;;;7.55;;
37609;SDS011;23457;51.966;8.230;2022-11-12T03:25:12;11.93;;;6.82;;
37609;SDS011;23457;51.966;8.230;2022-11-12T03:30:55;13.35;;;7.00;;
37609;SDS011;23457;51.966;8.230;2022-11-12T03:33:42;11.55;;;6.28;;
37609;SDS011;23457;51.966;8.230;2022-11-12T03:36:27;17.05;;;7.10;;
37609;SDS011;23457;51.966;8.230;2022-11-12T03:39:13;12.60;;;7.28;;
37609;SDS011;23457;51.966;8.230;2022-11-12T03:41:58;14.60;;;6.97;;
37609;SDS011;23457;51.966;8.230;2022-11-12T03:44:43;13.60;;;6.50;;
37609;SDS011;23457;51.966;8.230;2022-11-12T03:47:28;11.23;;;6.57;;
37609;SDS011;23457;51.966;8.230;2022-11-12T03:50:14;10.40;;;5.82;;
37609;SDS011;23457;51.966;8.230;2022-11-12T03:53:00;14.27;;;7.00;;
37609;SDS011;23457;51.966;8.230;2022-11-12T03:55:46;12.90;;;6.55;;
37609;SDS011;23457;51.966;8.230;2022-11-12T03:58:31;13.63;;;6.82;;
37609;SDS011;23457;51.966;8.230;2022-11-12T04:01:16;12.05;;;6.72;;
37609;SDS011;23457;51.966;8.230;2022-11-12T04:04:01;13.05;;;6.63;;
37609;SDS011;23457;51.966;8.230;2022-11-12T04:06:46;13.15;;;7.07;;
37609;SDS011;23457;51.966;8.230;2022-11-12T04:09:50;13.55;;;6.63;;
37609;SDS011;23457;51.966;8.230;2022-11-12T04:12:35;10.30;;;6.20;;
37609;SDS011;23457;51.966;8.230;2022-11-12T04:15:39;11.98;;;6.63;;
37609;SDS011;23457;51.966;8.230;2022-11-12T04:18:24;13.13;;;6.28;;
37609;SDS011;23457;51.966;8.230;2022-11-12T04:24:41;15.52;;;6.47;;
37609;SDS011;23457;51.966;8.230;2022-11-12T04:27:45;11.50;;;6.32;;
37609;SDS011;23457;51.966;8.230;2022-11-12T04:30:31;11.25;;;6.57;;
37609;SDS011;23457;51.966;8.230;2022-11-12T04:33:16;17.02;;;7.22;;
37609;SDS011;23457;51.966;8.230;2022-11-12T04:36:01;13.35;;;6.43;;
37609;SDS011;23457;51.966;8.230;2022-11-12T04:38:46;17.38;;;6.82;;
37609;SDS011;23457;51.966;8.230;2022-11-12T04:41:31;13.75;;;6.90;;
37609;SDS011;23457;51.966;8.230;2022-11-12T04:44:35;12.30;;;6.35;;
37609;SDS011;23457;51.966;8.230;2022-11-12T04:47:39;14.55;;;7.10;;
37609;SDS011;23457;51.966;8.230;2022-11-12T04:50:27;12.68;;;6.20;;
37609;SDS011;23457;51.966;8.230;2022-11-12T04:53:13;12.95;;;7.38;;
37609;SDS011;23457;51.966;8.230;2022-11-12T04:55:58;15.27;;;6.88;;
37609;SDS011;23457;51.966;8.230;2022-11-12T04:58:43;14.27;;;7.13;;
37609;SDS011;23457;51.966;8.230;2022-11-12T05:01:29;14.35;;;7.18;;
37609;SDS011;23457;51.966;8.230;2022-11-12T05:04:14;11.43;;;6.28;;
37609;SDS011;23457;51.966;8.230;2022-11-12T05:06:59;9.20;;;5.78;;
37609;SDS011;23457;51.966;8.230;2022-11-12T05:09:45;16.98;;;6.47;;
37609;SDS011;23457;51.966;8.230;2022-11-12T05:12:30;12.45;;;6.38;;
37609;SDS011;23457;51.966;8.230;2022-11-12T05:15:15;12.07;;;6.38;;
37609;SDS011;23457;51.966;8.230;2022-11-12T05:18:00;12.73;;;6.53;;
37609;SDS011;23457;51.966;8.230;2022-11-12T05:20:46;8.70;;;5.78;;
37609;SDS011;23457;51.966;8.230;2022-11-12T05:23:31;10.95;;;5.95;;
37609;SDS011;23457;51.966;8.230;2022-11-12T05:26:16;9.48;;;6.13;;
37609;SDS011;23457;51.966;8.230;2022-11-12T05:29:01;9.77;;;5.35;;
37609;SDS011;23457;51.966;8.230;2022-11-12T05:31:52;10.60;;;6.28;;
37609;SDS011;23457;51.966;8.230;2022-11-12T05:34:38;10.95;;;5.75;;
37609;SDS011;23457;51.966;8.230;2022-11-12T05:37:23;12.13;;;6.18;;
37609;SDS011;23457;51.966;8.230;2022-11-12T05:40:08;12.88;;;6.55;;
37609;SDS011;23457;51.966;8.230;2022-11-12T05:42:54;11.10;;;6.43;;
37609;SDS011;23457;51.966;8.230;2022-11-12T05:45:41;12.52;;;6.03;;
37609;SDS011;23457;51.966;8.230;2022-11-12T05:48:27;9.40;;;5.50;;
37609;SDS011;23457;51.966;8.230;2022-11-12T05:51:13;8.98;;;5.50;;
37609;SDS011;23457;51.966;8.230;2022-11-12T05:53:59;8.82;;;5.38;;
37609;SDS011;23457;51.966;8.230;2022-11-12T05:56:44;9.90;;;5.80;;
37609;SDS011;23457;51.966;8.230;2022-11-12T05:59:29;10.48;;;5.47;;
37609;SDS011;23457;51.966;8.230;2022-11-12T06:02:14;10.18;;;5.45;;
37609;SDS011;23457;51.966;8.230;2022-11-12T06:04:59;11.45;;;5.43;;
37609;SDS011;23457;51.966;8.230;2022-11-12T06:07:45;8.40;;;5.25;;
37609;SDS011;23457;51.966;8.230;2022-11-12T06:10:31;7.65;;;5.25;;
37609;SDS011;23457;51.966;8.230;2022-11-12T06:13:16;10.88;;;5.93;;
37609;SDS011;23457;51.966;8.230;2022-11-12T06:16:02;8.70;;;5.70;;
37609;SDS011;23457;51.966;8.230;2022-11-12T06:18:48;12.05;;;5.40;;
37609;SDS011;23457;51.966;8.230;2022-11-12T06:21:33;9.43;;;5.57;;
37609;SDS011;23457;51.966;8.230;2022-11-12T06:24:19;14.82;;;6.45;;
37609;SDS011;23457;51.966;8.230;2022-11-12T06:27:04;12.80;;;6.57;;
37609;SDS011;23457;51.966;8.230;2022-11-12T06:29:49;19.58;;;7.03;;
37609;SDS011;23457;51.966;8.230;2022-11-12T06:32:35;12.27;;;6.40;;
37609;SDS011;23457;51.966;8.230;2022-11-12T06:35:20;16.27;;;7.00;;
37609;SDS011;23457;51.966;8.230;2022-11-12T06:38:05;12.30;;;6.10;;
37609;SDS011;23457;51.966;8.230;2022-11-12T06:40:50;14.90;;;6.05;;
37609;SDS011;23457;51.966;8.230;2022-11-12T06:43:35;17.70;;;6.68;;
37609;SDS011;23457;51.966;8.230;2022-11-12T06:46:21;15.68;;;6.18;;
37609;SDS011;23457;51.966;8.230;2022-11-12T06:49:06;17.60;;;6.78;;
37609;SDS011;23457;51.966;8.230;2022-11-12T06:51:52;11.38;;;6.25;;
37609;SDS011;23457;51.966;8.230;2022-11-12T06:54:37;20.10;;;7.60;;
37609;SDS011;23457;51.966;8.230;2022-11-12T06:57:22;14.70;;;7.00;;
37609;SDS011;23457;51.966;8.230;2022-11-12T07:00:08;13.48;;;6.30;;
37609;SDS011;23457;51.966;8.230;2022-11-12T07:02:55;10.68;;;6.40;;
37609;SDS011;23457;51.966;8.230;2022-11-12T07:05:40;14.48;;;6.45;;
37609;SDS011;23457;51.966;8.230;2022-11-12T07:08:25;13.45;;;6.60;;
37609;SDS011;23457;51.966;8.230;2022-11-12T07:11:11;19.13;;;6.88;;
37609;SDS011;23457;51.966;8.230;2022-11-12T07:13:57;15.80;;;7.05;;
37609;SDS011;23457;51.966;8.230;2022-11-12T07:16:42;15.18;;;6.53;;
37609;SDS011;23457;51.966;8.230;2022-11-12T07:19:28;13.60;;;6.32;;
37609;SDS011;23457;51.966;8.230;2022-11-12T07:22:13;16.13;;;6.75;;
37609;SDS011;23457;51.966;8.230;2022-11-12T07:24:58;14.10;;;6.68;;
37609;SDS011;23457;51.966;8.230;2022-11-12T07:27:44;18.13;;;7.45;;
37609;SDS011;23457;51.966;8.230;2022-11-12T07:30:29;21.13;;;7.38;;
37609;SDS011;23457;51.966;8.230;2022-11-12T07:33:14;21.17;;;7.78;;
37609;SDS011;23457;51.966;8.230;2022-11-12T07:36:00;17.05;;;8.38;;
37609;SDS011;23457;51.966;8.230;2022-11-12T07:38:49;16.35;;;8.15;;
37609;SDS011;23457;51.966;8.230;2022-11-12T07:41:35;26.08;;;9.45;;
37609;SDS011;23457;51.966;8.230;2022-11-12T07:44:20;24.30;;;10.07;;
37609;SDS011;23457;51.966;8.230;2022-11-12T07:47:06;22.42;;;10.35;;
37609;SDS011;23457;51.966;8.230;2022-11-12T07:49:51;29.40;;;14.00;;
37609;SDS011;23457;51.966;8.230;2022-11-12T07:52:36;27.92;;;14.43;;
37609;SDS011;23457;51.966;8.230;2022-11-12T07:55:22;24.83;;;12.43;;
37609;SDS011;23457;51.966;8.230;2022-11-12T07:58:07;28.33;;;11.23;;
37609;SDS011;23457;51.966;8.230;2022-11-12T08:00:52;29.50;;;13.35;;
37609;SDS011;23457;51.966;8.230;2022-11-12T08:03:37;27.77;;;13.75;;
37609;SDS011;23457;51.966;8.230;2022-11-12T08:06:22;24.30;;;12.75;;
37609;SDS011;23457;51.966;8.230;2022-11-12T08:09:07;24.25;;;11.48;;
37609;SDS011;23457;51.966;8.230;2022-11-12T08:11:53;26.92;;;12.57;;
37609;SDS011;23457;51.966;8.230;2022-11-12T08:14:39;27.15;;;13.25;;
37609;SDS011;23457;51.966;8.230;2022-11-12T08:17:31;23.50;;;12.68;;
37609;SDS011;23457;51.966;8.230;2022-11-12T08:20:21;28.55;;;12.20;;
37609;SDS011;23457;51.966;8.230;2022-11-12T08:23:07;25.27;;;13.93;;
37609;SDS011;23457;51.966;8.230;2022-11-12T08:25:56;22.05;;;11.50;;
37609;SDS011;23457;51.966;8.230;2022-11-12T08:28:45;20.42;;;10.32;;
37609;SDS011;23457;51.966;8.230;2022-11-12T08:31:30;22.48;;;10.20;;
37609;SDS011;23457;51.966;8.230;2022-11-12T08:34:16;16.60;;;9.23;;
37609;SDS011;23457;51.966;8.230;2022-11-12T08:37:06;21.88;;;9.02;;
37609;SDS011;23457;51.966;8.230;2022-11-12T08:39:52;13.48;;;7.72;;
37609;SDS011;23457;51.966;8.230;2022-11-12T08:42:37;14.23;;;9.35;;
37609;SDS011;23457;51.966;8.230;2022-11-12T08:45:23;15.77;;;9.85;;
37609;SDS011;23457;51.966;8.230;2022-11-12T08:48:09;17.45;;;11.10;;
37609;SDS011;23457;51.966;8.230;2022-11-12T08:51:00;18.85;;;12.52;;
37609;SDS011;23457;51.966;8.230;2022-11-12T08:53:46;17.67;;;9.93;;
37609;SDS011;23457;51.966;8.230;2022-11-12T08:56:31;17.60;;;10.02;;
37609;SDS011;23457;51.966;8.230;2022-11-12T08:59:17;14.57;;;9.13;;
37609;SDS011;23457;51.966;8.230;2022-11-12T09:02:02;13.25;;;8.38;;
37609;SDS011;23457;51.966;8.230;2022-11-12T09:04:48;18.55;;;9.35;;
37609;SDS011;23457;51.966;8.230;2022-11-12T09:07:33;21.15;;;10.68;;
37609;SDS011;23457;51.966;8.230;2022-11-12T09:10:34;26.15;;;12.38;;
37609;SDS011;23457;51.966;8.230;2022-11-12T09:13:20;27.88;;;13.63;;
37609;SDS011;23457;51.966;8.230;2022-11-12T09:16:06;35.92;;;16.27;;
37609;SDS011;23457;51.966;8.230;2022-11-12T09:18:52;35.30;;;15.73;;
37609;SDS011;23457;51.966;8.230;2022-11-12T09:21:38;36.78;;;16.00;;
37609;SDS011;23457;51.966;8.230;2022-11-12T09:24:23;34.20;;;15.77;;
37609;SDS011;23457;51.966;8.230;2022-11-12T09:27:08;37.53;;;17.58;;
37609;SDS011;23457;51.966;8.230;2022-11-12T09:29:54;32.03;;;16.83;;
37609;SDS011;23457;51.966;8.230;2022-11-12T09:32:39;34.05;;;17.67;;
37609;SDS011;23457;51.966;8.230;2022-11-12T09:35:25;33.30;;;17.38;;
37609;SDS011;23457;51.966;8.230;2022-11-12T09:38:10;30.77;;;15.88;;
37609;SDS011;23457;51.966;8.230;2022-11-12T09:43:54;28.30;;;15.30;;
37609;SDS011;23457;51.966;8.230;2022-11-12T09:46:54;25.95;;;13.70;;
37609;SDS011;23457;51.966;8.230;2022-11-12T09:50:02;17.45;;;10.77;;
37609;SDS011;23457;51.966;8.230;2022-11-12T09:53:25;14.52;;;8.43;;
37609;SDS011;23457;51.966;8.230;2022-11-12T09:56:23;14.82;;;7.78;;
37609;SDS011;23457;51.966;8.230;2022-11-12T09:59:10;12.27;;;5.50;;
37609;SDS011;23457;51.966;8.230;2022-11-12T10:14:17;7.82;;;4.80;;
37609;SDS011;23457;51.966;8.230;2022-11-12T10:17:34;7.00;;;4.50;;
37609;SDS011;23457;51.966;8.230;2022-11-12T10:20:29;7.55;;;3.53;;
37609;SDS011;23457;51.966;8.230;2022-11-12T10:23:26;5.90;;;4.22;;
37609;SDS011;23457;51.966;8.230;2022-11-12T10:26:21;7.05;;;4.90;;
37609;SDS011;23457;51.966;8.230;2022-11-12T10:32:16;7.60;;;4.38;;
37609;SDS011;23457;51.966;8.230;2022-11-12T10:35:01;7.53;;;3.90;;
37609;SDS011;23457;51.966;8.230;2022-11-12T10:38:22;9.02;;;4.18;;
37609;SDS011;23457;51.966;8.230;2022-11-12T10:41:37;9.20;;;4.10;;
37609;SDS011;23457;51.966;8.230;2022-11-12T10:44:16;6.00;;;4.22;;
37609;SDS011;23457;51.966;8.230;2022-11-12T10:50:20;6.28;;;4.45;;
37609;SDS011;23457;51.966;8.230;2022-11-12T10:53:06;6.93;;;4.47;;
37609;SDS011;23457;51.966;8.230;2022-11-12T10:55:58;10.70;;;5.03;;
37609;SDS011;23457;51.966;8.230;2022-11-12T11:01:59;7.45;;;4.25;;
37609;SDS011;23457;51.966;8.230;2022-11-12T11:04:45;7.97;;;4.82;;
37609;SDS011;23457;51.966;8.230;2022-11-12T11:07:30;10.90;;;4.72;;
37609;SDS011;23457;51.966;8.230;2022-11-12T11:13:30;8.20;;;5.07;;
37609;SDS011;23457;51.966;8.230;2022-11-12T11:16:26;5.88;;;3.80;;
37609;SDS011;23457;51.966;8.230;2022-11-12T11:19:12;9.38;;;4.40;;
37609;SDS011;23457;51.966;8.230;2022-11-12T11:22:03;9.80;;;4.43;;
37609;SDS011;23457;51.966;8.230;2022-11-12T11:34:02;11.55;;;4.93;;
37609;SDS011;23457;51.966;8.230;2022-11-12T11:37:02;5.10;;;3.72;;
37609;SDS011;23457;51.966;8.230;2022-11-12T11:58:04;9.10;;;4.35;;
37609;SDS011;23457;51.966;8.230;2022-11-12T12:01:33;6.63;;;3.42;;
37609;SDS011;23457;51.966;8.230;2022-11-12T12:08:01;7.15;;;4.18;;
37609;SDS011;23457;51.966;8.230;2022-11-12T12:20:16;4.22;;;3.00;;
37609;SDS011;23457;51.966;8.230;2022-11-12T12:23:28;3.78;;;3.22;;
37609;SDS011;23457;51.966;8.230;2022-11-12T12:26:24;5.55;;;3.83;;
37609;SDS011;23457;51.966;8.230;2022-11-12T12:29:31;6.47;;;3.30;;
37609;SDS011;23457;51.966;8.230;2022-11-12T12:32:26;4.03;;;2.90;;
37609;SDS011;23457;51.966;8.230;2022-11-12T12:35:24;5.47;;;3.13;;
37609;SDS011;23457;51.966;8.230;2022-11-12T12:41:26;7.35;;;3.33;;
37609;SDS011;23457;51.966;8.230;2022-11-12T12:44:16;5.88;;;2.80;;
37609;SDS011;23457;51.966;8.230;2022-11-12T12:47:02;3.80;;;2.50;;
37609;SDS011;23457;51.966;8.230;2022-11-12T12:49:48;4.38;;;3.13;;
37609;SDS011;23457;51.966;8.230;2022-11-12T12:55:53;6.50;;;4.10;;
37609;SDS011;23457;51.966;8.230;2022-11-12T13:01:27;9.02;;;3.70;;
37609;SDS011;23457;51.966;8.230;2022-11-12T13:04:15;6.05;;;3.53;;
37609;SDS011;23457;51.966;8.230;2022-11-12T13:07:01;5.32;;;3.67;;
37609;SDS011;23457;51.966;8.230;2022-11-12T13:09:51;6.25;;;3.78;;
37609;SDS011;23457;51.966;8.230;2022-11-12T13:15:59;5.70;;;2.70;;
37609;SDS011;23457;51.966;8.230;2022-11-12T13:21:34;5.13;;;2.10;;
37609;SDS011;23457;51.966;8.230;2022-11-12T13:24:58;8.05;;;2.47;;
37609;SDS011;23457;51.966;8.230;2022-11-12T13:33:27;4.40;;;2.45;;
37609;SDS011;23457;51.966;8.230;2022-11-12T13:36:24;4.70;;;2.20;;
37609;SDS011;23457;51.966;8.230;2022-11-12T13:39:13;2.90;;;2.20;;
37609;SDS011;23457;51.966;8.230;2022-11-12T13:42:02;3.50;;;2.17;;
37609;SDS011;23457;51.966;8.230;2022-11-12T13:45:16;6.80;;;2.60;;
37609;SDS011;23457;51.966;8.230;2022-11-12T13:48:07;2.85;;;1.90;;
37609;SDS011;23457;51.966;8.230;2022-11-12T13:51:03;2.40;;;2.20;;
37609;SDS011;23457;51.966;8.230;2022-11-12T13:53:56;5.45;;;2.22;;
37609;SDS011;23457;51.966;8.230;2022-11-12T13:56:42;4.28;;;2.15;;
37609;SDS011;23457;51.966;8.230;2022-11-12T13:59:27;3.42;;;2.20;;
37609;SDS011;23457;51.966;8.230;2022-11-12T14:02:22;5.45;;;2.15;;
37609;SDS011;23457;51.966;8.230;2022-11-12T14:05:14;8.13;;;2.28;;
37609;SDS011;23457;51.966;8.230;2022-11-12T14:17:34;3.53;;;2.25;;
37609;SDS011;23457;51.966;8.230;2022-11-12T14:20:39;4.72;;;2.30;;
37609;SDS011;23457;51.966;8.230;2022-11-12T14:23:25;3.22;;;2.17;;
37609;SDS011;23457;51.966;8.230;2022-11-12T14:26:10;4.22;;;2.58;;
37609;SDS011;23457;51.966;8.230;2022-11-12T14:28:57;2.50;;;2.00;;
37609;SDS011;23457;51.966;8.230;2022-11-12T14:31:42;3.58;;;2.20;;
37609;SDS011;23457;51.966;8.230;2022-11-12T14:34:29;7.93;;;2.38;;
37609;SDS011;23457;51.966;8.230;2022-11-12T14:37:31;4.30;;;2.50;;
37609;SDS011;23457;51.966;8.230;2022-11-12T14:40:26;3.97;;;2.45;;
37609;SDS011;23457;51.966;8.230;2022-11-12T14:43:17;3.88;;;2.38;;
37609;SDS011;23457;51.966;8.230;2022-11-12T14:46:25;6.53;;;2.60;;
37609;SDS011;23457;51.966;8.230;2022-11-12T14:49:17;5.05;;;2.30;;
37609;SDS011;23457;51.966;8.230;2022-11-12T14:52:07;6.10;;;2.50;;
37609;SDS011;23457;51.966;8.230;2022-11-12T14:54:58;5.03;;;2.20;;
37609;SDS011;23457;51.966;8.230;2022-11-12T14:57:53;3.50;;;2.45;;
37609;SDS011;23457;51.966;8.230;2022-11-12T15:03:30;5.13;;;3.22;;
37609;SDS011;23457;51.966;8.230;2022-11-12T15:06:20;7.57;;;4.78;;
37609;SDS011;23457;51.966;8.230;2022-11-12T15:09:15;5.95;;;3.70;;
37609;SDS011;23457;51.966;8.230;2022-11-12T15:14:53;6.65;;;3.33;;
37609;SDS011;23457;51.966;8.230;2022-11-12T15:17:56;6.70;;;3.90;;
37609;SDS011;23457;51.966;8.230;2022-11-12T15:20:43;6.10;;;3.45;;
37609;SDS011;23457;51.966;8.230;2022-11-12T15:23:29;10.43;;;3.88;;
37609;SDS011;23457;51.966;8.230;2022-11-12T15:26:25;4.88;;;3.10;;
37609;SDS011;23457;51.966;8.230;2022-11-12T15:34:57;9.63;;;4.88;;
37609;SDS011;23457;51.966;8.230;2022-11-12T15:37:43;10.10;;;4.57;;
37609;SDS011;23457;51.966;8.230;2022-11-12T15:40:28;6.82;;;3.72;;
37609;SDS011;23457;51.966;8.230;2022-11-12T15:43:17;8.57;;;4.15;;
37609;SDS011;23457;51.966;8.230;2022-11-12T15:46:09;6.28;;;3.92;;
37609;SDS011;23457;51.966;8.230;2022-11-12T15:49:01;6.35;;;4.00;;
37609;SDS011;23457;51.966;8.230;2022-11-12T15:51:46;6.68;;;4.03;;
37609;SDS011;23457;51.966;8.230;2022-11-12T15:54:31;7.22;;;4.65;;
37609;SDS011;23457;51.966;8.230;2022-11-12T15:57:25;13.02;;;4.45;;
37609;SDS011;23457;51.966;8.230;2022-11-12T16:00:13;9.15;;;5.20;;
37609;SDS011;23457;51.966;8.230;2022-11-12T16:03:11;9.13;;;6.18;;
37609;SDS011;23457;51.966;8.230;2022-11-12T16:05:58;11.43;;;5.97;;
37609;SDS011;23457;51.966;8.230;2022-11-12T16:08:51;8.23;;;5.65;;
37609;SDS011;23457;51.966;8.230;2022-11-12T16:11:36;10.40;;;5.80;;
37609;SDS011;23457;51.966;8.230;2022-11-12T16:14:21;11.10;;;5.88;;
37609;SDS011;23457;51.966;8.230;2022-11-12T16:17:10;12.98;;;6.13;;
37609;SDS011;23457;51.966;8.230;2022-11-12T16:20:00;16.10;;;7.10;;
37609;SDS011;23457;51.966;8.230;2022-11-12T16:22:46;13.95;;;6.78;;
37609;SDS011;23457;51.966;8.230;2022-11-12T16:25:32;10.88;;;7.15;;
37609;SDS011;23457;51.966;8.230;2022-11-12T16:28:19;11.82;;;6.82;;
37609;SDS011;23457;51.966;8.230;2022-11-12T16:31:05;12.38;;;7.70;;
37609;SDS011;23457;51.966;8.230;2022-11-12T16:33:50;15.50;;;8.43;;
37609;SDS011;23457;51.966;8.230;2022-11-12T16:36:36;15.95;;;8.60;;
37609;SDS011;23457;51.966;8.230;2022-11-12T16:39:23;17.23;;;9.48;;
37609;SDS011;23457;51.966;8.230;2022-11-12T16:42:09;22.40;;;11.57;;
37609;SDS011;23457;51.966;8.230;2022-11-12T16:44:54;19.92;;;12.02;;
37609;SDS011;23457;51.966;8.230;2022-11-12T16:47:42;21.73;;;13.43;;
37609;SDS011;23457;51.966;8.230;2022-11-12T16:50:31;21.75;;;13.80;;
37609;SDS011;23457;51.966;8.230;2022-11-12T16:53:17;19.92;;;12.07;;
37609;SDS011;23457;51.966;8.230;2022-11-12T16:56:02;15.93;;;9.68;;
37609;SDS011;23457;51.966;8.230;2022-11-12T16:58:48;19.30;;;10.27;;
37609;SDS011;23457;51.966;8.230;2022-11-12T17:01:33;13.57;;;9.50;;
37609;SDS011;23457;51.966;8.230;2022-11-12T17:04:18;14.07;;;8.40;;
37609;SDS011;23457;51.966;8.230;2022-11-12T17:07:04;13.38;;;8.48;;
37609;SDS011;23457;51.966;8.230;2022-11-12T17:09:50;14.40;;;7.70;;
37609;SDS011;23457;51.966;8.230;2022-11-12T17:12:36;12.88;;;7.68;;
37609;SDS011;23457;51.966;8.230;2022-11-12T17:15:22;13.57;;;8.85;;
37609;SDS011;23457;51.966;8.230;2022-11-12T17:18:07;14.15;;;8.35;;
37609;SDS011;23457;51.966;8.230;2022-11-12T17:20:53;19.75;;;9.85;;
37609;SDS011;23457;51.966;8.230;2022-11-12T17:23:40;17.95;;;9.55;;
37609;SDS011;23457;51.966;8.230;2022-11-12T17:26:27;17.63;;;10.25;;
37609;SDS011;23457;51.966;8.230;2022-11-12T17:29:12;20.30;;;10.35;;
37609;SDS011;23457;51.966;8.230;2022-11-12T17:31:58;20.95;;;11.02;;
37609;SDS011;23457;51.966;8.230;2022-11-12T17:34:43;21.65;;;12.25;;
37609;SDS011;23457;51.966;8.230;2022-11-12T17:37:28;27.50;;;14.68;;
37609;SDS011;23457;51.966;8.230;2022-11-12T17:40:13;35.70;;;17.70;;
37609;SDS011;23457;51.966;8.230;2022-11-12T17:42:59;38.50;;;17.92;;
37609;SDS011;23457;51.966;8.230;2022-11-12T17:45:51;33.90;;;18.25;;
37609;SDS011;23457;51.966;8.230;2022-11-12T17:48:37;25.13;;;14.18;;
37609;SDS011;23457;51.966;8.230;2022-11-12T17:51:24;28.00;;;14.60;;
37609;SDS011;23457;51.966;8.230;2022-11-12T17:54:10;28.13;;;13.32;;
37609;SDS011;23457;51.966;8.230;2022-11-12T17:56:56;24.13;;;13.55;;
37609;SDS011;23457;51.966;8.230;2022-11-12T17:59:41;21.05;;;12.70;;
37609;SDS011;23457;51.966;8.230;2022-11-12T18:02:26;20.08;;;12.10;;
37609;SDS011;23457;51.966;8.230;2022-11-12T18:05:12;19.42;;;11.70;;
37609;SDS011;23457;51.966;8.230;2022-11-12T18:07:57;23.25;;;12.73;;
37609;SDS011;23457;51.966;8.230;2022-11-12T18:10:43;20.75;;;11.70;;
37609;SDS011;23457;51.966;8.230;2022-11-12T18:13:29;21.92;;;11.82;;
37609;SDS011;23457;51.966;8.230;2022-11-12T18:16:19;23.50;;;14.73;;
37609;SDS011;23457;51.966;8.230;2022-11-12T18:19:04;21.38;;;11.57;;
37609;SDS011;23457;51.966;8.230;2022-11-12T18:21:49;22.20;;;12.75;;
37609;SDS011;23457;51.966;8.230;2022-11-12T18:24:36;22.13;;;13.48;;
37609;SDS011;23457;51.966;8.230;2022-11-12T18:27:21;25.15;;;14.73;;
37609;SDS011;23457;51.966;8.230;2022-11-12T18:30:07;25.05;;;14.82;;
37609;SDS011;23457;51.966;8.230;2022-11-12T18:32:52;25.15;;;15.75;;
37609;SDS011;23457;51.966;8.230;2022-11-12T18:35:38;26.30;;;16.20;;
37609;SDS011;23457;51.966;8.230;2022-11-12T18:38:23;27.88;;;16.35;;
37609;SDS011;23457;51.966;8.230;2022-11-12T18:41:09;30.38;;;17.27;;
37609;SDS011;23457;51.966;8.230;2022-11-12T18:43:56;34.40;;;18.70;;